Latest Weather Observations for PORTABLE QFRL (Mt Fox)

IDQ60801

Issued at 3:22 pm EST Tuesday 29 September 2020 (issued every 10 minutes, with the page automatically refreshed every 10 minutes)

About weather observations | Map of weather stations | Latest weather observations for QLD | Other Formats
Station Details ID: 250076 Name: MOUNT FOX (QFRL) Lat: -18.82 Lon: 145.79 Height: 645.0 m

Portable automatic weather stations (PAWS) are operated by other organisations, such as Fire and Emergency Services, and are included here by agreement. Portable stations may be deployed to a location for a short period and their location may be subject to change without notice. Wind observations from these stations are provided from heights of either three (3) or ten (10) metres above ground level (AGL).

Data from the previous 72 hours. | See also: Recent months for locations in Queensland
Date/Time
EST
Temp
°C
App
Temp
°C
Dew
Point
°C
Rel
Hum
%
Delta-T
°C
Wind Press
QNH
hPa
Press
MSL
hPa
Rain since
9am
mm
Dir  Spd
km/h
Gust
km/h
Spd
kts
Gust
kts
29/03:10pm 21.3 21.1 14.7 66 4.0 NE 9 17 5 9 - - 0.0
29/03:00pm 21.4 21.3 14.9 66 3.9 ENE 9 15 5 8 - - 0.0
29/02:50pm 21.3 20.3 14.7 66 4.0 NE 13 17 7 9 - - 0.0
29/02:40pm 21.4 20.9 14.9 66 3.9 ENE 11 17 6 9 - - 0.0
29/02:30pm 21.8 21.7 15.0 65 4.1 ENE 9 15 5 8 - - 0.0
29/02:20pm 22.1 21.6 14.9 63 4.4 NE 11 17 6 9 - - 0.0
29/02:10pm 21.5 21.0 15.0 66 4.0 NE 11 17 6 9 - - 0.0
29/02:00pm 21.7 20.8 14.8 65 4.2 ENE 13 17 7 9 - - 0.0
29/01:50pm 21.7 21.2 14.9 65 4.1 ENE 11 17 6 9 - - 0.0
29/01:40pm 22.0 21.9 14.9 64 4.3 ENE 9 13 5 7 - - 0.0
29/01:30pm 22.4 21.6 15.0 63 4.5 NE 13 17 7 9 - - 0.0
29/01:20pm 22.7 22.2 15.0 61 4.7 ENE 11 19 6 10 - - 0.0
29/01:10pm 22.5 21.7 15.0 62 4.6 NE 13 17 7 9 - - 0.0
29/01:00pm 22.4 21.9 14.8 62 4.6 ENE 11 15 6 8 - - 0.0
29/12:50pm 22.0 21.0 14.6 63 4.5 E 13 17 7 9 - - 0.0
29/12:40pm 22.6 22.1 14.8 61 4.7 ENE 11 15 6 8 - - 0.0
29/12:30pm 22.8 22.4 15.2 62 4.7 ENE 11 15 6 8 - - 0.0
29/12:20pm 22.9 21.3 14.9 60 4.9 ENE 17 20 9 11 - - 0.0
29/12:10pm 23.3 22.4 14.9 59 5.1 NE 13 19 7 10 - - 0.0
29/12:00pm 23.5 22.3 15.1 59 5.2 NE 15 19 8 10 - - 0.0
29/11:50am 22.7 22.0 15.4 63 4.5 NE 13 17 7 9 - - 0.0
29/11:40am 22.3 21.1 15.0 63 4.5 ENE 15 19 8 10 - - 0.0
29/11:30am 23.0 22.3 15.5 62 4.6 NE 13 17 7 9 - - 0.0
29/11:20am 22.8 22.1 15.5 63 4.5 ENE 13 22 7 12 - - 0.0
29/11:10am 22.8 21.7 15.3 62 4.6 ENE 15 20 8 11 - - 0.0
29/11:00am 23.2 22.7 15.8 63 4.6 NE 13 19 7 10 - - 0.0
29/10:50am 22.6 22.1 16.0 66 4.1 NE 13 20 7 11 - - 0.0
29/10:40am 22.5 21.8 15.4 64 4.4 ENE 13 17 7 9 - - 0.0
29/10:30am 22.4 22.1 16.4 69 3.7 NE 13 19 7 10 - - 0.0
29/10:20am 21.9 21.2 16.3 70 3.5 ENE 15 22 8 12 - - 0.0
29/10:10am 21.7 21.8 16.6 73 3.2 NE 11 19 6 10 - - 0.0
29/10:00am 21.6 21.4 16.8 74 3.0 ENE 13 19 7 10 - - 0.0
29/09:50am 22.0 22.1 16.5 71 3.4 NE 11 15 6 8 - - 0.0
29/09:40am 21.4 20.8 16.6 74 3.0 ENE 15 22 8 12 - - 0.0
29/09:30am 20.9 20.7 16.7 77 2.6 ENE 13 19 7 10 - - 0.0
29/09:20am 20.7 20.5 16.8 78 2.4 NE 13 19 7 10 - - 0.0
29/09:10am 20.4 20.4 17.1 81 2.1 NE 13 22 7 12 - - 0.0
29/09:00am 20.8 20.6 16.8 78 2.5 NE 13 19 7 10 - - 0.0
29/08:50am 20.2 20.1 16.9 81 2.1 NE 13 17 7 9 - - 0.0
29/08:40am 20.6 20.5 16.9 79 2.3 NE 13 19 7 10 - - 0.0
29/08:30am 20.6 20.4 16.8 79 2.4 NE 13 17 7 9 - - 0.0
29/08:20am 19.5 19.6 16.6 83 1.8 NE 11 17 6 9 - - 0.0
29/08:10am 19.2 18.9 16.5 84 1.7 NE 13 19 7 10 - - 0.0
29/08:00am 19.1 19.2 16.6 85 1.5 NE 11 19 6 10 - - 0.0
29/07:50am 18.9 19.0 16.5 86 1.5 NE 11 15 6 8 - - 0.0
29/07:40am 18.9 19.0 16.6 86 1.4 NE 11 15 6 8 - - 0.0
29/07:30am 18.7 18.9 16.8 89 1.2 NE 11 17 6 9 - - 0.0
29/07:20am 18.5 18.7 16.7 89 1.1 NE 11 17 6 9 - - 0.0
29/07:10am 18.3 18.5 16.8 91 0.9 NE 11 15 6 8 - - 0.0
29/07:00am 18.2 18.4 16.7 91 0.9 NE 11 17 6 9 - - 0.0
29/06:50am 18.2 17.9 16.5 90 1.0 NE 13 17 7 9 - - 0.0
29/06:40am 18.1 17.7 16.2 89 1.2 NE 13 17 7 9 - - 0.0
29/06:30am 18.1 17.7 16.2 89 1.2 NE 13 17 7 9 - - 0.0
29/06:20am 18.1 18.1 16.3 89 1.1 NE 11 15 6 8 - - 0.0
29/06:10am 18.2 18.3 16.4 89 1.1 NE 11 17 6 9 - - 0.0
29/06:00am 18.2 17.9 16.4 89 1.1 NE 13 17 7 9 - - 0.0
29/05:50am 18.2 17.8 16.2 88 1.2 NE 13 17 7 9 - - 0.0
29/05:40am 18.2 18.6 16.4 89 1.1 NE 9 15 5 8 - - 0.0
29/05:30am 18.2 18.6 16.4 89 1.1 NE 9 13 5 7 - - 0.0
29/05:20am 18.3 18.0 16.5 89 1.1 NE 13 15 7 8 - - 0.0
29/05:10am 18.3 18.4 16.4 89 1.2 NE 11 15 6 8 - - 0.0
29/05:00am 18.3 18.4 16.5 89 1.1 NE 11 15 6 8 - - 0.0
29/04:50am 18.3 18.4 16.5 89 1.1 NE 11 15 6 8 - - 0.0
29/04:40am 18.3 18.5 16.7 90 1.0 NE 11 15 6 8 - - 0.0
29/04:30am 18.4 19.0 16.8 90 1.0 NE 9 13 5 7 - - 0.0
29/04:20am 18.3 18.9 16.7 90 1.0 NE 9 15 5 8 - - 0.0
29/04:10am 18.3 18.8 16.5 89 1.1 NE 9 13 5 7 - - 0.0
29/04:00am 18.3 18.8 16.5 89 1.1 NNE 9 13 5 7 - - 0.0
29/03:50am 18.3 18.8 16.6 90 1.0 NE 9 15 5 8 - - 0.0
29/03:40am 18.3 18.8 16.6 90 1.0 NE 9 13 5 7 - - 0.0
29/03:30am 18.3 18.4 16.5 89 1.1 NE 11 15 6 8 - - 0.0
29/03:20am 18.4 19.0 16.8 90 1.0 NE 9 13 5 7 - - 0.0
29/03:10am 18.3 18.9 16.7 90 1.0 NE 9 15 5 8 - - 0.0
29/03:00am 18.3 19.3 16.8 91 0.9 NE 7 13 4 7 - - 0.0
29/02:50am 18.3 19.2 16.7 90 1.0 NE 7 15 4 8 - - 0.0
29/02:40am 18.3 18.4 16.6 90 1.0 NE 11 17 6 9 - - 0.0
29/02:30am 18.3 18.4 16.6 90 1.0 NE 11 17 6 9 - - 0.0
29/02:20am 18.4 18.6 16.7 90 1.1 NE 11 15 6 8 - - 0.0
29/02:10am 18.4 18.6 16.7 90 1.1 NE 11 17 6 9 - - 0.0
29/02:00am 18.3 18.8 16.5 89 1.1 NE 9 15 5 8 - - 0.0
29/01:50am 18.3 18.4 16.5 89 1.1 NE 11 15 6 8 - - 0.0
29/01:40am 18.4 18.5 16.5 89 1.2 NE 11 15 6 8 - - 0.0
29/01:30am 18.4 18.5 16.6 89 1.1 NE 11 17 6 9 - - 0.0
29/01:20am 18.4 18.6 16.7 90 1.1 NE 11 19 6 10 - - 0.0
29/01:10am 18.4 18.6 16.7 90 1.1 NE 11 19 6 10 - - 0.0
29/01:00am 18.4 18.9 16.5 89 1.2 NE 9 13 5 7 - - 0.0
29/12:50am 18.5 19.1 16.7 89 1.1 NE 9 11 5 6 - - 0.0
29/12:40am 18.6 19.2 16.8 89 1.1 NE 9 17 5 9 - - 0.0
29/12:30am 18.6 18.9 16.9 90 1.1 NE 11 13 6 7 - - 0.0
29/12:20am 18.6 18.5 16.9 90 1.1 NNE 13 17 7 9 - - 0.0
29/12:10am 18.6 19.2 16.9 90 1.1 NE 9 15 5 8 - - 0.0
29/12:00am 18.6 19.2 16.8 89 1.1 NE 9 13 5 7 - - 0.0
 
Date/Time
EST
Temp
°C
App
Temp
°C
Dew
Point
°C
Rel
Hum
%
Delta-T
°C
Wind Press
QNH
hPa
Press
MSL
hPa
Rain since
9am
mm
Dir  Spd
km/h
Gust
km/h
Spd
kts
Gust
kts
28/11:50pm 18.7 19.3 16.8 89 1.2 NE 9 13 5 7 - - 0.0
28/11:40pm 18.6 19.2 16.7 89 1.2 NE 9 19 5 10 - - 0.0
28/11:30pm 18.5 19.0 16.6 89 1.2 NE 9 15 5 8 - - 0.0
28/11:20pm 18.7 19.2 16.6 87 1.3 NE 9 19 5 10 - - 0.0
28/11:10pm 18.6 18.7 16.6 88 1.2 NE 11 15 6 8 - - 0.0
28/11:00pm 18.6 18.7 16.5 87 1.3 NE 11 15 6 8 - - 0.0
28/10:50pm 18.6 18.8 16.8 89 1.1 NE 11 17 6 9 - - 0.0
28/10:40pm 18.6 18.8 16.8 89 1.1 NE 11 19 6 10 - - 0.0
28/10:30pm 18.6 18.8 16.8 89 1.1 NE 11 15 6 8 - - 0.0
28/10:20pm 18.6 19.2 16.7 89 1.2 NE 9 15 5 8 - - 0.0
28/10:10pm 18.6 18.8 16.7 89 1.2 NE 11 15 6 8 - - 0.0
28/10:00pm 18.6 18.8 16.8 89 1.1 NE 11 17 6 9 - - 0.0
28/09:50pm 18.6 19.2 16.7 89 1.2 NE 9 13 5 7 - - 0.0
28/09:40pm 18.6 18.7 16.5 87 1.3 NNE 11 13 6 7 - - 0.0
28/09:30pm 18.6 19.5 16.6 88 1.2 NE 7 11 4 6 - - 0.0
28/09:20pm 18.6 18.7 16.5 87 1.3 NE 11 15 6 8 - - 0.0
28/09:10pm 18.7 18.8 16.6 87 1.3 NNE 11 15 6 8 - - 0.0
28/09:00pm 18.7 19.2 16.6 87 1.3 NE 9 15 5 8 - - 0.0
28/08:50pm 18.7 18.5 16.7 88 1.2 NE 13 19 7 10 - - 0.0
28/08:40pm 18.8 19.0 16.7 87 1.3 NE 11 13 6 7 - - 0.0
28/08:30pm 18.7 18.9 16.7 88 1.2 NE 11 15 6 8 - - 0.0
28/08:20pm 18.7 18.1 16.6 87 1.3 NE 15 19 8 10 - - 0.0
28/08:10pm 18.8 18.9 16.6 87 1.4 NE 11 15 6 8 - - 0.0
28/08:00pm 18.8 18.9 16.6 87 1.4 NE 11 20 6 11 - - 0.0
28/07:50pm 18.8 18.9 16.5 86 1.4 NE 11 15 6 8 - - 0.0
28/07:40pm 18.8 18.9 16.5 86 1.4 NE 11 15 6 8 - - 0.0
28/07:30pm 18.9 19.4 16.5 86 1.5 NE 9 15 5 8 - - 0.0
28/07:20pm 19.0 19.5 16.5 85 1.5 NE 9 15 5 8 - - 0.0
28/07:10pm 19.0 19.1 16.5 85 1.5 NE 11 17 6 9 - - 0.0
28/07:00pm 19.1 19.2 16.4 84 1.7 NE 11 17 6 9 - - 0.0
28/06:50pm 19.1 19.6 16.5 85 1.6 NE 9 15 5 8 - - 0.0
28/06:40pm 19.2 20.1 16.5 84 1.7 NE 7 13 4 7 - - 0.0
28/06:30pm 19.3 19.8 16.5 84 1.7 NE 9 11 5 6 - - 0.0
28/06:20pm 19.5 20.0 16.5 83 1.9 NE 9 13 5 7 - - 0.0
28/06:10pm 19.6 20.1 16.5 82 1.9 NE 9 13 5 7 - - 0.0
28/06:00pm 19.8 20.6 16.4 81 2.1 ENE 7 11 4 6 - - 0.0
28/05:50pm 20.1 20.9 16.3 79 2.3 ENE 7 15 4 8 - - 0.0
28/05:40pm 20.4 20.6 15.8 75 2.8 ENE 9 13 5 7 - - 0.0
28/05:30pm 20.7 21.0 15.9 74 3.0 NE 9 13 5 7 - - 0.0
28/05:20pm 21.1 21.4 16.0 72 3.1 ENE 9 15 5 8 - - 0.0
28/05:10pm 21.3 21.5 15.8 71 3.4 ENE 9 13 5 7 - - 0.0
28/05:00pm 21.5 22.0 15.5 68 3.7 ENE 7 11 4 6 - - 0.0
28/04:50pm 21.8 21.9 15.4 67 3.9 ENE 9 15 5 8 - - 0.0
28/04:40pm 22.2 21.5 15.3 65 4.2 NE 13 17 7 9 - - 0.0
28/04:30pm 23.2 23.2 15.3 61 4.9 NE 9 15 5 8 - - 0.0
28/04:20pm 23.5 23.9 15.4 60 5.0 NE 7 13 4 7 - - 0.0
28/04:10pm 22.8 22.0 15.1 62 4.7 NNE 13 19 7 10 - - 0.0
28/04:00pm 22.5 22.6 15.5 64 4.3 NE 9 13 5 7 - - 0.0
28/03:50pm 23.0 22.5 16.0 64 4.4 NNE 13 17 7 9 - - 0.0
28/03:40pm 23.6 23.1 15.8 61 4.8 NNE 13 17 7 9 - - 0.0
28/03:30pm 23.7 23.2 15.8 61 4.9 NNE 13 17 7 9 - - 0.0
28/03:20pm 23.9 23.4 16.0 61 4.9 NNE 13 19 7 10 - - 0.0
28/03:10pm 24.2 23.9 15.5 58 5.4 NE 11 17 6 9 - - 0.0
28/03:00pm 24.4 24.2 15.7 58 5.4 NNE 11 15 6 8 - - 0.0
28/02:50pm 24.6 24.0 15.6 57 5.6 NNE 13 20 7 11 - - 0.0
28/02:40pm 24.7 24.2 15.8 57 5.5 NE 13 19 7 10 - - 0.0
28/02:30pm 24.9 24.8 16.1 58 5.5 NNE 11 17 6 9 - - 0.0
28/02:20pm 24.7 24.0 15.4 56 5.8 NE 13 17 7 9 - - 0.0
28/02:10pm 24.7 23.3 15.6 57 5.7 NNE 17 24 9 13 - - 0.0
28/02:00pm 25.2 24.3 15.9 56 5.8 NNE 15 22 8 12 - - 0.0
28/01:50pm 25.5 24.9 15.7 54 6.1 NE 13 17 7 9 - - 0.0
28/01:40pm 25.2 24.3 14.9 52 6.3 NNE 13 17 7 9 - - 0.0
28/01:30pm 25.1 24.6 16.0 57 5.7 NE 13 17 7 9 - - 0.0
28/01:20pm 25.5 25.2 16.5 57 5.7 NNE 13 17 7 9 - - 0.0
28/01:10pm 25.6 25.6 16.3 56 5.9 NNE 11 17 6 9 - - 0.0
28/01:00pm 25.3 25.3 16.2 57 5.7 NE 11 15 6 8 - - 0.0
28/12:50pm 24.7 24.8 16.5 60 5.2 ENE 11 15 6 8 - - 0.0
28/12:40pm 25.1 24.4 16.3 58 5.5 NNE 15 19 8 10 - - 0.0
28/12:30pm 24.6 23.5 15.2 55 5.8 NE 15 19 8 10 - - 0.0
28/12:20pm 24.5 24.6 16.5 61 5.0 NE 11 19 6 10 - - 0.0
28/12:10pm 24.7 23.6 16.3 59 5.3 NNE 17 20 9 11 - - 0.0
28/12:00pm 24.6 23.6 15.7 57 5.5 NE 15 19 8 10 - - 0.0
28/11:50am 24.5 24.2 16.5 61 5.0 NE 13 17 7 9 - - 0.0
28/11:40am 24.5 24.2 16.4 60 5.1 NNE 13 17 7 9 - - 0.0
28/11:30am 24.7 24.4 16.4 60 5.2 NE 13 19 7 10 - - 0.0
28/11:20am 24.6 24.7 16.6 61 5.0 NE 11 17 6 9 - - 0.0
28/11:10am 24.4 24.3 15.9 59 5.3 NE 11 17 6 9 - - 0.0
28/11:00am 24.0 24.3 16.9 64 4.5 NE 11 17 6 9 - - 0.0
28/10:50am 23.7 24.1 17.3 67 4.1 NE 11 15 6 8 - - 0.0
28/10:40am 23.6 23.5 16.9 66 4.2 NE 13 15 7 8 - - 0.0
28/10:30am 23.9 24.5 16.8 64 4.5 NNE 9 15 5 8 - - 0.0
28/10:20am 23.3 23.5 16.8 67 4.1 NE 11 15 6 8 - - 0.0
28/10:10am 22.8 23.4 16.8 69 3.8 NE 9 13 5 7 - - 0.0
28/10:00am 21.6 22.0 17.2 76 2.8 NNE 11 15 6 8 - - 0.0
28/09:50am 21.9 22.4 17.5 76 2.8 NE 11 15 6 8 - - 0.0
28/09:40am 22.5 23.6 17.2 72 3.4 NE 7 13 4 7 - - 0.0
28/09:30am 22.1 23.2 17.1 73 3.2 E 7 11 4 6 - - 0.0
28/09:20am 21.4 22.3 17.5 78 2.5 NE 9 13 5 7 - - 0.0
28/09:10am 21.7 22.5 17.2 75 2.8 NE 9 15 5 8 - - 0.0
28/09:00am 22.3 23.4 17.0 72 3.3 ENE 7 11 4 6 - - 0.0
28/08:50am 21.8 22.1 17.1 74 3.0 NNE 11 15 6 8 - - 0.0
28/08:40am 21.8 22.4 16.9 73 3.1 NE 9 15 5 8 - - 0.0
28/08:30am 21.3 21.9 16.7 75 2.9 NE 9 11 5 6 - - 0.0
28/08:20am 21.0 21.9 17.5 80 2.2 NE 9 19 5 10 - - 0.0
28/08:10am 20.7 21.4 17.0 79 2.3 ENE 9 15 5 8 - - 0.0
28/08:00am 20.6 21.7 17.1 80 2.2 NE 7 11 4 6 - - 0.0
28/07:50am 20.5 21.7 16.9 80 2.2 NE 6 11 3 6 - - 0.0
28/07:40am 20.2 20.8 16.7 80 2.2 NE 9 13 5 7 - - 0.0
28/07:30am 19.6 20.9 17.2 86 1.5 NE 6 13 3 7 - - 0.0
28/07:20am 19.2 20.2 16.8 86 1.5 NNE 7 13 4 7 - - 0.0
28/07:10am 19.0 20.2 16.8 87 1.4 NE 6 9 3 5 - - 0.0
28/07:00am 18.6 20.1 16.7 89 1.2 NE 4 7 2 4 - - 0.0
28/06:50am 18.3 19.8 16.6 90 1.0 NE 4 7 2 4 - - 0.0
28/06:40am 18.0 19.0 16.4 90 1.0 NE 6 9 3 5 - - 0.0
28/06:30am 17.9 19.3 16.4 91 0.9 E 4 7 2 4 - - 0.0
28/06:20am 17.8 19.2 16.4 91 0.9 NE 4 9 2 5 - - 0.0
28/06:10am 17.8 18.9 16.5 92 0.8 ENE 6 13 3 7 - - 0.0
28/06:00am 17.8 19.2 16.5 92 0.8 NNE 4 9 2 5 - - 0.0
28/05:50am 17.7 18.7 16.4 92 0.8 NE 6 9 3 5 - - 0.0
28/05:40am 17.5 18.5 16.3 93 0.7 NE 6 9 3 5 - - 0.0
28/05:30am 17.5 19.2 16.2 92 0.8 NE 2 7 1 4 - - 0.0
28/05:20am 17.6 19.0 16.3 92 0.8 NE 4 7 2 4 - - 0.0
28/05:10am 17.7 19.5 16.4 92 0.8 ENE 2 6 1 3 - - 0.0
28/05:00am 17.8 18.9 16.5 92 0.8 NE 6 9 3 5 - - 0.0
28/04:50am 17.9 19.0 16.5 91 0.9 NE 6 7 3 4 - - 0.0
28/04:40am 17.9 19.3 16.5 91 0.9 ENE 4 6 2 3 - - 0.0
28/04:30am 17.9 19.3 16.5 91 0.9 ENE 4 6 2 3 - - 0.0
28/04:20am 17.9 19.7 16.4 91 0.9 NE 2 4 1 2 - - 0.0
28/04:10am 18.0 19.4 16.4 90 1.0 NE 4 6 2 3 - - 0.0
28/04:00am 18.1 19.5 16.4 90 1.0 ENE 4 7 2 4 - - 0.0
28/03:50am 18.2 19.6 16.4 89 1.1 ENE 4 7 2 4 - - 0.0
28/03:40am 18.2 20.0 16.5 90 1.0 E 2 4 1 2 - - 0.0
28/03:30am 18.3 20.1 16.5 89 1.1 E 2 6 1 3 - - 0.0
28/03:20am 18.3 20.1 16.5 89 1.1 NE 2 6 1 3 - - 0.0
28/03:10am 18.2 19.7 16.6 90 1.0 ESE 4 7 2 4 - - 0.0
28/03:00am 18.3 20.2 16.7 90 1.0 E 2 4 1 2 - - 0.0
28/02:50am 18.2 19.7 16.7 91 0.9 NE 4 7 2 4 - - 0.0
28/02:40am 18.2 19.3 16.7 91 0.9 SE 6 7 3 4 - - 0.0
28/02:30am 18.2 19.8 16.8 91 0.9 E 4 7 2 4 - - 0.0
28/02:20am 18.2 19.1 16.7 91 0.9 NE 7 11 4 6 - - 0.0
28/02:10am 18.2 18.8 16.8 91 0.9 NE 9 11 5 6 - - 0.0
28/02:00am 18.2 18.8 16.8 91 0.9 NE 9 11 5 6 - - 0.0
28/01:50am 18.2 18.5 16.9 92 0.8 NE 11 13 6 7 - - 0.0
28/01:40am 18.2 18.4 16.8 91 0.9 NNE 11 17 6 9 - - 0.0
28/01:30am 18.2 18.4 16.8 91 0.9 NNE 11 17 6 9 - - 0.0
28/01:20am 18.2 18.8 16.8 91 0.9 NNE 9 15 5 8 - - 0.0
28/01:10am 18.2 18.4 16.7 91 0.9 NNE 11 15 6 8 - - 0.0
28/01:00am 18.2 18.4 16.8 91 0.9 NE 11 17 6 9 - - 0.0
28/12:50am 18.2 18.8 16.8 91 0.9 NE 9 13 5 7 - - 0.0
28/12:40am 18.3 18.5 16.7 90 1.0 NNE 11 13 6 7 - - 0.0
28/12:30am 18.3 18.9 16.7 90 1.0 NNE 9 13 5 7 - - 0.0
28/12:20am 18.3 18.5 16.7 90 1.0 NE 11 15 6 8 - - 0.0
28/12:10am 18.5 18.7 16.7 89 1.1 NE 11 17 6 9 - - 0.0
28/12:00am 18.4 18.5 16.6 89 1.1 NE 11 15 6 8 - - 0.0
 
Date/Time
EST
Temp
°C
App
Temp
°C
Dew
Point
°C
Rel
Hum
%
Delta-T
°C
Wind Press
QNH
hPa
Press
MSL
hPa
Rain since
9am
mm
Dir  Spd
km/h
Gust
km/h
Spd
kts
Gust
kts
27/11:50pm 18.4 19.3 16.7 90 1.1 NE 7 11 4 6 - - 0.0
27/11:40pm 18.4 18.9 16.6 89 1.1 NE 9 13 5 7 - - 0.0
27/11:30pm 18.4 18.5 16.6 89 1.1 NNE 11 17 6 9 - - 0.0
27/11:20pm 18.4 18.9 16.6 89 1.1 NE 9 11 5 6 - - 0.0
27/11:10pm 18.5 19.0 16.6 89 1.2 NE 9 13 5 7 - - 0.0
27/11:00pm 18.5 19.4 16.7 89 1.1 NE 7 11 4 6 - - 0.0
27/10:50pm 18.5 19.1 16.7 89 1.1 NE 9 13 5 7 - - 0.0
27/10:40pm 18.6 19.2 16.8 89 1.1 NNE 9 13 5 7 - - 0.0
27/10:30pm 18.6 19.6 16.8 89 1.1 NE 7 13 4 7 - - 0.0
27/10:20pm 18.5 19.1 16.7 89 1.1 NE 9 13 5 7 - - 0.0
27/10:10pm 18.5 19.1 16.7 89 1.1 NE 9 17 5 9 - - 0.0
27/10:00pm 18.5 19.1 16.7 89 1.1 NE 9 11 5 6 - - 0.0
27/09:50pm 18.6 19.1 16.6 88 1.2 NNE 9 13 5 7 - - 0.0
27/09:40pm 18.6 19.5 16.6 88 1.2 NE 7 11 4 6 - - 0.0
27/09:30pm 18.7 19.3 16.7 88 1.2 NNE 9 13 5 7 - - 0.0
27/09:20pm 18.7 19.6 16.7 88 1.2 NE 7 11 4 6 - - 0.0
27/09:10pm 18.7 19.7 16.8 89 1.2 NE 7 15 4 8 - - 0.0
27/09:00pm 18.7 19.7 16.9 89 1.1 NE 7 9 4 5 - - 0.0
27/08:50pm 18.8 19.4 16.8 88 1.2 NE 9 13 5 7 - - 0.0
27/08:40pm 18.8 19.4 16.8 88 1.2 NE 9 15 5 8 - - 0.0
27/08:30pm 18.8 19.0 16.7 87 1.3 NE 11 17 6 9 - - 0.0
27/08:20pm 18.9 19.2 16.9 88 1.2 NE 11 19 6 10 - - 0.0
27/08:10pm 18.9 19.9 16.9 88 1.2 NNE 7 15 4 8 - - 0.0
27/08:00pm 18.9 19.5 16.9 88 1.2 NE 9 13 5 7 - - 0.0
27/07:50pm 19.0 19.7 17.0 88 1.2 NE 9 13 5 7 - - 0.0
27/07:40pm 19.1 19.4 17.0 88 1.3 NE 11 17 6 9 - - 0.0
27/07:30pm 19.3 19.6 17.1 87 1.4 NE 11 15 6 8 - - 0.0
27/07:20pm 19.4 20.2 17.2 87 1.4 NE 9 17 5 9 - - 0.0
27/07:10pm 19.5 19.9 17.3 87 1.4 NE 11 15 6 8 - - 0.0
27/07:00pm 19.6 20.9 17.5 88 1.3 NE 7 11 4 6 - - 0.0
27/06:50pm 19.8 20.6 17.4 86 1.5 NE 9 17 5 9 - - 0.0
27/06:40pm 20.1 20.9 17.4 84 1.7 NE 9 15 5 8 - - 0.0
27/06:30pm 20.3 21.4 17.1 82 2.0 NE 7 13 4 7 - - 0.0
27/06:20pm 20.7 21.3 16.7 78 2.5 NE 9 13 5 7 - - 0.0
27/06:10pm 21.1 21.2 16.4 74 2.9 NE 11 13 6 7 - - 0.0
27/06:00pm 21.6 21.6 16.2 71 3.4 NE 11 17 6 9 - - 0.0
27/05:50pm 22.1 22.2 15.6 66 4.0 NE 9 11 5 6 - - 0.0
27/05:40pm 22.6 22.5 14.9 61 4.7 NE 9 13 5 7 - - 0.0
27/05:30pm 23.1 22.8 14.3 57 5.3 NE 9 15 5 8 - - 0.0
27/05:20pm 23.6 22.6 13.5 53 6.0 NE 11 15 6 8 - - 0.0
27/05:10pm 24.0 23.2 12.9 50 6.6 NNE 9 13 5 7 - - 0.0
27/05:00pm 24.3 23.2 13.0 49 6.7 NE 11 15 6 8 - - 0.0
27/04:50pm 24.9 24.1 13.0 47 7.1 NNE 9 13 5 7 - - 0.0
27/04:40pm 25.0 24.0 13.3 48 7.0 NE 11 17 6 9 - - 0.0
27/04:30pm 25.5 24.6 12.5 44 7.7 NE 9 15 5 8 - - 0.0
27/04:20pm 25.8 23.9 11.9 42 8.2 NE 13 19 7 10 - - 0.0
27/04:10pm 26.1 23.9 10.8 38 8.9 NE 13 17 7 9 - - 0.0
27/04:00pm 26.9 24.9 10.3 35 9.6 NNE 11 17 6 9 - - 0.0
27/03:50pm 27.2 25.2 8.7 31 10.4 NNE 9 13 5 7 - - 0.0
27/03:40pm 27.1 24.2 8.0 30 10.6 NNE 13 22 7 12 - - 0.0
27/03:30pm 27.3 24.9 8.5 30 10.5 NE 11 15 6 8 - - 0.0
27/03:20pm 27.3 24.1 8.6 30 10.5 NNE 15 19 8 10 - - 0.0
27/03:10pm 27.7 25.1 9.2 31 10.5 NNE 13 17 7 9 - - 0.0
27/03:00pm 27.8 25.4 10.1 33 10.2 NNE 13 19 7 10 - - 0.0
27/02:50pm 27.7 24.7 9.2 31 10.5 NNE 15 19 8 10 - - 0.0
27/02:40pm 27.9 24.9 9.1 30 10.7 NNE 15 19 8 10 - - 0.0
27/02:30pm 28.0 25.4 9.2 30 10.7 NNE 13 19 7 10 - - 0.0
27/02:20pm 28.0 25.4 9.2 30 10.7 NNE 13 20 7 11 - - 0.0
27/02:10pm 28.0 25.7 10.5 33 10.2 NE 13 15 7 8 - - 0.0
27/02:00pm 28.0 25.9 12.3 37 9.4 NNE 15 19 8 10 - - 0.0
27/01:50pm 28.0 26.6 13.5 41 8.8 NNE 13 22 7 12 - - 0.0
27/01:40pm 28.0 27.2 13.9 42 8.6 NNE 11 19 6 10 - - 0.0
27/01:30pm 27.9 26.8 13.2 40 8.9 NE 11 19 6 10 - - 0.0
27/01:20pm 28.2 27.0 12.7 38 9.3 NNE 11 17 6 9 - - 0.0
27/01:10pm 27.9 27.8 15.0 45 8.0 NNE 9 17 5 9 - - 0.0
27/01:00pm 27.8 27.3 13.8 42 8.6 NNE 9 15 5 8 - - 0.0
27/12:50pm 27.4 26.8 14.5 45 8.0 NE 11 17 6 9 - - 0.0
27/12:40pm 27.6 27.4 14.8 45 7.9 NE 9 13 5 7 - - 0.0
27/12:30pm 27.2 27.0 14.8 46 7.7 ENE 9 13 5 7 - - 0.0
27/12:20pm 27.3 26.6 14.4 45 7.9 NNE 11 15 6 8 - - 0.0
27/12:10pm 27.5 27.0 12.5 39 9.0 ENE 7 11 4 6 - - 0.0
27/12:00pm 27.5 26.2 12.4 39 9.0 NE 11 19 6 10 - - 0.0
27/11:50am 27.9 27.2 12.0 37 9.5 NE 7 13 4 7 - - 0.0
27/11:40am 27.6 26.8 11.8 37 9.4 NE 7 11 4 6 - - 0.0
27/11:30am 27.4 26.5 12.6 40 8.9 NE 9 13 5 7 - - 0.0
27/11:20am 27.3 26.3 12.2 39 9.0 NNE 9 13 5 7 - - 0.0
27/11:10am 27.3 26.3 12.2 39 9.0 NE 9 13 5 7 - - 0.0
27/11:00am 27.2 26.3 12.7 40 8.7 NNE 9 13 5 7 - - 0.0
27/10:50am 27.1 26.4 13.1 42 8.4 NNE 9 11 5 6 - - 0.0
27/10:40am 27.2 26.3 12.6 40 8.7 NNE 9 15 5 8 - - 0.0
27/10:30am 27.6 27.0 11.8 37 9.4 ENE 6 7 3 4 - - 0.0
27/10:20am 27.5 26.4 10.6 34 9.8 NE 7 13 4 7 - - 0.0
27/10:10am 27.4 26.2 10.4 34 9.8 ENE 7 9 4 5 - - 0.0
27/10:00am 27.7 27.8 11.5 36 9.5 E 2 6 1 3 - - 0.0
27/09:50am 27.4 26.5 9.4 32 10.2 E 4 7 2 4 - - 0.0
27/09:40am 27.4 26.7 10.0 33 10.0 NE 4 7 2 4 - - 0.0
27/09:30am 27.0 26.4 10.3 35 9.6 E 4 6 2 3 - - 0.0
27/09:20am 27.4 26.5 9.2 32 10.3 N 4 6 2 3 - - 0.0
27/09:10am 26.4 26.1 10.2 36 9.3 W 2 6 1 3 - - 0.0
27/09:00am 26.0 25.6 9.9 36 9.2 ESE 2 6 1 3 - - 0.0
27/08:50am 25.2 24.6 8.8 35 9.1 SE 2 4 1 2 - - 0.0
27/08:40am 24.4 23.5 9.3 38 8.4 S 4 7 2 4 - - 0.0
27/08:30am 23.9 22.7 9.7 40 8.0 SSE 6 11 3 6 - - 0.0
27/08:20am 23.3 21.9 9.0 40 7.9 SSE 6 9 3 5 - - 0.0
27/08:10am 22.7 21.9 9.8 44 7.2 SSE 4 7 2 4 - - 0.0
27/08:00am 20.9 21.7 12.6 59 4.8 CALM 0 2 0 1 - - 0.0
27/07:50am 19.3 20.5 13.8 70 3.2 CALM 0 0 0 0 - - 0.0
27/07:40am 17.2 18.9 15.1 87 1.3 CALM 0 0 0 0 - - 0.0
27/07:30am 15.1 16.4 14.0 93 0.6 CALM 0 2 0 1 - - 0.0
27/07:20am 13.8 14.8 13.1 96 0.4 CALM 0 0 0 0 - - 0.0
27/07:10am 12.4 12.9 11.6 95 0.4 CALM 0 0 0 0 - - 0.0
27/07:00am 11.5 11.8 10.8 95 0.4 CALM 0 0 0 0 - - 0.0
27/06:50am 10.9 11.0 10.1 95 0.4 CALM 0 0 0 0 - - 0.0
27/06:40am 10.6 10.6 9.8 95 0.4 CALM 0 0 0 0 - - 0.0
27/06:30am 10.5 10.4 9.6 94 0.5 CALM 0 0 0 0 - - 0.0
27/06:20am 10.4 10.3 9.5 94 0.5 CALM 0 0 0 0 - - 0.0
27/06:10am 10.4 10.3 9.4 93 0.5 CALM 0 0 0 0 - - 0.0
27/06:00am 10.5 10.4 9.6 94 0.5 CALM 0 0 0 0 - - 0.0
27/05:50am 10.6 10.6 9.7 94 0.5 CALM 0 0 0 0 - - 0.0
27/05:40am 10.6 10.5 9.6 93 0.5 CALM 0 0 0 0 - - 0.0
27/05:30am 10.8 10.8 9.8 93 0.5 CALM 0 0 0 0 - - 0.0
27/05:20am 10.9 10.9 9.9 93 0.5 CALM 0 0 0 0 - - 0.0
27/05:10am 11.1 11.2 10.1 94 0.5 CALM 0 0 0 0 - - 0.0
27/05:00am 11.3 11.4 10.3 94 0.5 CALM 0 0 0 0 - - 0.0
27/04:50am 11.4 11.5 10.3 93 0.6 CALM 0 0 0 0 - - 0.0
27/04:40am 11.5 11.6 10.3 92 0.6 CALM 0 0 0 0 - - 0.0
27/04:30am 11.5 11.6 10.3 92 0.6 CALM 0 0 0 0 - - 0.0
27/04:20am 11.7 11.9 10.4 92 0.7 CALM 0 0 0 0 - - 0.0
27/04:10am 12.0 12.2 10.7 92 0.7 CALM 0 0 0 0 - - 0.0
27/04:00am 12.2 12.5 10.8 91 0.8 CALM 0 0 0 0 - - 0.0
27/03:50am 12.4 12.7 11.0 91 0.8 CALM 0 0 0 0 - - 0.0
27/03:40am 12.6 13.0 11.1 91 0.8 CALM 0 0 0 0 - - 0.0
27/03:30am 12.8 13.2 11.2 90 0.9 CALM 0 0 0 0 - - 0.0
27/03:20am 13.1 13.5 11.3 89 1.0 CALM 0 0 0 0 - - 0.0
27/03:10am 13.5 14.0 11.6 88 1.0 CALM 0 0 0 0 - - 0.0
27/03:00am 13.9 14.4 11.7 86 1.2 CALM 0 0 0 0 - - 0.0
27/02:50am 14.3 14.9 11.9 85 1.3 CALM 0 0 0 0 - - 0.0
27/02:40am 14.9 15.6 12.3 84 1.5 CALM 0 0 0 0 - - 0.0
27/02:30am 15.3 16.0 12.3 82 1.7 CALM 0 0 0 0 - - 0.0
27/02:20am 15.7 16.5 12.5 81 1.8 CALM 0 2 0 1 - - 0.0
27/02:10am 16.2 16.6 12.6 79 2.1 NW 2 6 1 3 - - 0.0
27/02:00am 16.2 16.6 12.6 79 2.1 SE 2 4 1 2 - - 0.0
27/01:50am 16.6 16.6 12.5 77 2.3 SW 4 6 2 3 - - 0.0
27/01:40am 17.1 17.6 12.7 75 2.5 SW 2 4 1 2 - - 0.0
27/01:30am 17.5 18.3 12.6 73 2.8 CALM 0 2 0 1 - - 0.0
27/01:20am 17.7 18.1 12.5 71 3.0 NNE 2 4 1 2 - - 0.0
27/01:10am 17.8 18.2 12.4 70 3.1 NNE 2 6 1 3 - - 0.0
27/01:00am 17.9 18.3 12.4 70 3.1 ENE 2 6 1 3 - - 0.0
27/12:50am 18.1 18.0 12.2 68 3.4 NE 4 6 2 3 - - 0.0
27/12:40am 18.2 18.0 11.9 66 3.6 NE 4 6 2 3 - - 0.0
27/12:30am 18.4 18.1 11.6 64 3.8 NE 4 7 2 4 - - 0.0
27/12:20am 18.4 18.1 11.3 63 4.0 NE 4 7 2 4 - - 0.0
27/12:10am 18.5 18.0 10.8 61 4.3 NE 4 7 2 4 - - 0.0
27/12:00am 18.7 17.8 10.8 60 4.4 NE 6 9 3 5 - - 0.0
 
Date/Time
EST
Temp
°C
App
Temp
°C
Dew
Point
°C
Rel
Hum
%
Delta-T
°C
Wind Press
QNH
hPa
Press
MSL
hPa
Rain since
9am
mm
Dir  Spd
km/h
Gust
km/h
Spd
kts
Gust
kts
26/11:50pm 18.7 18.3 11.1 61 4.3 NE 4 6 2 3 - - 0.0
26/11:40pm 18.9 18.4 10.7 59 4.6 NE 4 9 2 5 - - 0.0
26/11:30pm 18.9 17.8 9.9 56 4.9 NNE 6 7 3 4 - - 0.0
26/11:20pm 18.9 18.0 9.3 53 5.2 NNE 4 6 2 3 - - 0.0
26/11:10pm 18.9 17.9 8.7 51 5.5 NE 4 7 2 4 - - 0.0
26/11:00pm 19.1 18.0 8.6 50 5.6 NE 4 6 2 3 - - 0.0
26/10:50pm 19.2 18.1 8.3 49 5.8 NE 4 6 2 3 - - 0.0
26/10:40pm 19.1 18.2 9.1 52 5.4 ENE 4 6 2 3 - - 0.0
26/10:30pm 19.1 18.4 10.0 55 5.0 NE 4 6 2 3 - - 0.0
26/10:20pm 19.3 18.8 10.9 58 4.7 ENE 4 6 2 3 - - 0.0
26/10:10pm 19.3 19.1 11.9 62 4.2 ENE 4 7 2 4 - - 0.0
26/10:00pm 19.3 19.4 12.8 66 3.8 ENE 4 9 2 5 - - 0.0
26/09:50pm 19.0 19.6 14.2 73 2.9 ENE 4 7 2 4 - - 0.0
26/09:40pm 18.9 20.0 15.7 82 1.9 ENE 4 7 2 4 - - 0.0
26/09:30pm 18.9 20.5 15.9 83 1.8 ENE 2 6 1 3 - - 0.0
26/09:20pm 19.1 20.7 15.9 82 2.0 E 2 6 1 3 - - 0.0
26/09:10pm 19.2 20.4 15.9 81 2.0 ENE 4 7 2 4 - - 0.0
26/09:00pm 19.4 20.6 15.9 80 2.1 ENE 4 7 2 4 - - 0.0
26/08:50pm 19.5 20.4 16.2 81 2.0 ENE 6 9 3 5 - - 0.0
26/08:40pm 19.6 21.0 16.4 82 2.0 NE 4 7 2 4 - - 0.0
26/08:30pm 19.8 21.6 16.4 81 2.1 NE 2 6 1 3 - - 0.0
26/08:20pm 19.8 21.5 16.3 80 2.2 ENE 2 7 1 4 - - 0.0
26/08:10pm 19.9 21.7 16.4 80 2.2 E 2 4 1 2 - - 0.0
26/08:00pm 20.2 22.0 16.5 79 2.3 ENE 2 6 1 3 - - 0.0
26/07:50pm 20.3 22.2 16.6 79 2.3 ENE 2 6 1 3 - - 0.0
26/07:40pm 20.5 22.4 16.6 78 2.4 ENE 2 6 1 3 - - 0.0
26/07:30pm 20.6 22.0 16.5 77 2.5 E 4 7 2 4 - - 0.0
26/07:20pm 20.8 22.6 16.4 76 2.7 ENE 2 6 1 3 - - 0.0
26/07:10pm 21.0 22.7 16.2 74 3.0 E 2 4 1 2 - - 0.0
26/07:00pm 21.3 22.9 16.0 72 3.3 ESE 2 4 1 2 - - 0.0
26/06:50pm 21.5 23.0 15.6 69 3.6 SE 2 6 1 3 - - 0.0
26/06:40pm 21.9 23.2 15.2 65 4.1 ENE 2 6 1 3 - - 0.0
26/06:30pm 22.2 23.0 14.8 63 4.5 NE 4 6 2 3 - - 0.0
26/06:20pm 22.7 23.7 14.3 59 5.1 ENE 2 7 1 4 - - 0.0
26/06:10pm 23.2 24.1 13.9 56 5.6 E 2 6 1 3 - - 0.0
26/06:00pm 23.7 24.4 13.4 52 6.2 NE 2 7 1 4 - - 0.0
26/05:50pm 24.2 24.3 12.6 48 6.9 ENE 4 7 2 4 - - 0.0
26/05:40pm 24.6 23.9 12.0 45 7.4 NE 7 11 4 6 - - 0.0
26/05:30pm 25.0 24.3 11.3 42 8.0 NE 6 11 3 6 - - 0.0
26/05:20pm 25.3 24.4 11.2 41 8.2 NE 7 9 4 5 - - 0.0
26/05:10pm 25.5 24.6 11.2 40 8.3 NE 7 9 4 5 - - 0.0
26/05:00pm 25.7 24.2 10.7 39 8.6 NE 9 13 5 7 - - 0.0
26/04:50pm 25.8 24.5 11.1 39 8.5 NE 9 15 5 8 - - 0.0
26/04:40pm 26.0 24.5 10.7 38 8.8 NE 9 15 5 8 - - 0.0
26/04:30pm 26.4 24.6 10.9 38 9.0 NNE 11 15 6 8 - - 0.0
26/04:20pm 26.6 25.2 11.0 37 9.1 NNE 9 15 5 8 - - 0.0
26/04:10pm 26.9 25.2 11.2 37 9.2 NNE 11 15 6 8 - - 0.0
26/04:00pm 27.2 25.7 12.0 38 9.0 NE 11 15 6 8 - - 0.0
26/03:50pm 27.6 26.4 11.7 37 9.4 NE 9 15 5 8 - - 0.0
26/03:40pm 27.7 26.1 11.4 36 9.6 NNE 11 15 6 8 - - 0.0
26/03:30pm 27.7 26.3 12.3 38 9.2 NE 11 13 6 7 - - 0.0

Other formats

Comma delimited format used in spreadsheet applications
http://www.bom.gov.au/fwo/IDQ60801/IDQ60801.99125.axf

JavaScript Object Notation format (JSON) in row-major order
http://www.bom.gov.au/fwo/IDQ60801/IDQ60801.99125.json

Data quality

Most of these data are generated automatically and are frequently updated. Quality checks on data are not normally performed. It is possible for incorrect values to appear. Refer to information at About Latest Weather Observations and please check the disclaimer before using these data.